Time;durP1;ratioP1;P1;durP2;ratioP2;P2;SDS_P1;SDS_P2;PMS_P1;PMS_P2;Temp;Humidity;BMP_temperature;BMP_pressure;BME280_temperature;BME280_humidity;BME280_pressure;Samples;Min_cycle;Max_cycle;Signal;HPM_P1;HPM_P2
2021/12/15 00:02:50;;;;;;;133.60;54.07;;;;;;;2.25;80.99;99911.53;2170665;81;21008;-84
2021/12/15 00:05:51;;;;;;;127.67;50.27;;;;;;;2.28;81.18;99917.27;2170131;81;21464;-84
2021/12/15 00:08:51;;;;;;;142.00;56.93;;;;;;;2.29;81.10;99917.36;2169839;82;21420;-85
2021/12/15 00:11:52;;;;;;;140.33;57.10;;;;;;;2.28;81.05;99936.59;2170560;82;20949;-84
2021/12/15 00:14:52;;;;;;;132.70;54.93;;;;;;;2.33;81.29;99934.80;2170557;81;20988;-85
2021/12/15 00:17:53;;;;;;;133.40;52.00;;;;;;;2.33;81.07;99942.92;2170307;81;21028;-86
2021/12/15 00:20:53;;;;;;;131.07;51.50;;;;;;;2.33;81.03;99946.78;2170534;81;20948;-84
2021/12/15 00:23:54;;;;;;;120.40;50.33;;;;;;;2.30;80.86;99948.77;2170542;82;20953;-84
2021/12/15 00:26:55;;;;;;;129.27;52.33;;;;;;;2.30;80.84;99942.73;2170666;81;20957;-84
2021/12/15 00:29:55;;;;;;;112.80;48.77;;;;;;;2.28;80.87;99935.30;2170934;81;21051;-84
2021/12/15 00:32:56;;;;;;;117.50;48.53;;;;;;;2.29;80.86;99928.96;2172950;81;20945;-84
2021/12/15 00:35:56;;;;;;;120.80;49.97;;;;;;;2.30;80.86;99926.88;2173085;81;20992;-83
2021/12/15 00:38:57;;;;;;;119.73;49.93;;;;;;;2.29;80.74;99921.62;2172578;81;20992;-81
2021/12/15 00:41:57;;;;;;;115.50;50.27;;;;;;;2.28;80.86;99923.31;2172100;81;21004;-84
2021/12/15 00:44:58;;;;;;;112.03;49.03;;;;;;;2.32;81.10;99921.81;2172513;81;20980;-84
2021/12/15 00:47:58;;;;;;;116.40;49.93;;;;;;;2.34;81.09;99921.52;2172420;81;20953;-83
2021/12/15 00:50:59;;;;;;;109.73;48.03;;;;;;;2.35;81.27;99910.02;2173496;81;20995;-81
2021/12/15 00:53:59;;;;;;;121.97;49.60;;;;;;;2.38;81.26;99909.30;2173294;82;20936;-82
2021/12/15 00:57:00;;;;;;;108.53;47.47;;;;;;;2.39;81.32;99902.95;2173184;81;20989;-81
2021/12/15 01:00:00;;;;;;;112.53;48.40;;;;;;;2.42;81.44;99910.88;2173665;81;20973;-84
2021/12/15 01:03:01;;;;;;;116.87;51.63;;;;;;;2.49;81.23;99926.31;2173703;81;20977;-84
2021/12/15 01:06:05;;;;;;;105.13;46.73;;;;;;;2.53;81.37;99932.14;2173948;81;20953;-84
2021/12/15 01:09:04;;;;;;;111.63;48.37;;;;;;;2.55;81.08;99934.02;2173730;81;21057;-84
2021/12/15 01:12:19;;;;;;;102.10;46.27;;;;;;;2.57;80.86;99935.39;2173968;81;20996;-84
2021/12/15 01:21:34;;;;;;;99.40;44.50;;;;;;;2.56;80.68;99924.59;2173719;82;21003;-83
2021/12/15 01:24:35;;;;;;;96.27;43.77;;;;;;;2.55;80.60;99923.70;2173398;81;20977;-83
2021/12/15 01:27:35;;;;;;;92.87;43.50;;;;;;;2.55;80.50;99930.15;2173277;81;20957;-84
2021/12/15 01:30:36;;;;;;;100.07;46.53;;;;;;;2.53;80.64;99924.01;2173111;81;21036;-83
2021/12/15 01:33:36;;;;;;;103.57;46.37;;;;;;;2.56;80.69;99924.59;2172695;81;21349;-80
2021/12/15 01:36:37;;;;;;;94.87;44.57;;;;;;;2.59;80.72;99927.75;2172660;81;21317;-81
2021/12/15 01:39:38;;;;;;;99.07;43.87;;;;;;;2.60;80.54;99928.25;2172701;81;20954;-81
2021/12/15 01:42:38;;;;;;;108.20;46.10;;;;;;;2.58;80.54;99935.00;2172634;81;21059;-81
2021/12/15 01:48:58;;;;;;;122.43;49.57;;;;;;;2.55;80.63;99937.88;2172471;82;20981;-83
2021/12/15 01:51:59;;;;;;;106.77;46.67;;;;;;;2.54;80.70;99939.97;2172395;81;20972;-84
2021/12/15 01:54:59;;;;;;;126.67;48.70;;;;;;;2.52;80.62;99938.98;2172734;82;20980;-83
2021/12/15 01:58:00;;;;;;;113.87;46.47;;;;;;;2.51;80.63;99947.91;2173433;81;21368;-82
2021/12/15 02:01:00;;;;;;;129.33;52.70;;;;;;;2.52;80.74;99944.14;2172670;81;21020;-83
2021/12/15 02:04:01;;;;;;;130.73;51.93;;;;;;;2.52;80.81;99937.70;2172665;81;20984;-83
2021/12/15 02:07:02;;;;;;;115.80;49.57;;;;;;;2.55;81.33;99950.77;2172899;81;20952;-82
2021/12/15 02:10:04;;;;;;;128.07;50.90;;;;;;;2.62;81.35;99952.47;2174197;81;20976;-82
2021/12/15 02:13:05;;;;;;;157.87;53.53;;;;;;;2.68;81.75;99956.30;2173495;82;20992;-82
2021/12/15 02:16:05;;;;;;;144.30;56.30;;;;;;;2.69;82.22;99949.45;2172723;82;20984;-83
2021/12/15 02:19:06;;;;;;;143.03;56.60;;;;;;;2.74;82.61;99949.34;2173206;82;21424;-83
2021/12/15 02:22:07;;;;;;;143.77;54.07;;;;;;;2.77;82.38;99948.23;2173322;82;21003;-82
2021/12/15 02:25:10;;;;;;;162.10;55.30;;;;;;;2.80;82.11;99947.13;2173618;81;20929;-82
2021/12/15 02:28:12;;;;;;;136.87;50.57;;;;;;;2.83;82.03;99951.17;2172707;81;21071;-82
2021/12/15 02:31:41;;;;;;;134.53;52.57;;;;;;;2.85;82.38;99947.00;2143016;81;21061;-82
2021/12/15 02:34:56;;;;;;;144.17;53.57;;;;;;;2.88;82.75;99949.36;2114716;84;21000;-83
2021/12/15 02:37:36;;;;;;;123.80;51.53;;;;;;;2.91;82.66;99960.26;2112386;84;21094;-83
2021/12/15 02:40:39;;;;;;;108.47;47.83;;;;;;;2.95;82.21;99963.91;2073538;86;20969;-82
2021/12/15 02:43:39;;;;;;;116.03;47.10;;;;;;;2.92;81.87;99959.86;2073714;85;21013;-82
2021/12/15 02:46:40;;;;;;;126.63;50.67;;;;;;;2.91;81.66;99956.39;2073438;85;20946;-83
2021/12/15 02:49:40;;;;;;;102.90;46.73;;;;;;;2.91;81.61;99964.52;2073283;86;20968;-81
2021/12/15 02:52:41;;;;;;;117.33;47.63;;;;;;;2.89;81.57;99968.30;2073209;86;20961;-81
2021/12/15 02:55:42;;;;;;;124.47;49.43;;;;;;;2.89;81.35;99970.87;2074190;85;20977;-81
2021/12/15 02:58:49;;;;;;;129.83;51.57;;;;;;;2.86;81.35;99962.56;2073361;85;21380;-80
2021/12/15 03:05:02;;;;;;;133.73;49.60;;;;;;;2.83;81.90;99974.38;2054623;86;21376;-81
2021/12/15 03:08:02;;;;;;;132.33;49.57;;;;;;;2.86;82.13;99971.98;2071875;86;21075;-81
2021/12/15 03:17:32;;;;;;;125.33;49.37;;;;;;;2.88;82.76;99972.97;2050224;87;21008;-83
2021/12/15 03:20:33;;;;;;;119.27;50.37;;;;;;;2.89;82.46;99969.59;2050482;87;21394;-80
2021/12/15 03:23:37;;;;;;;118.17;49.40;;;;;;;2.92;82.67;99972.35;2050498;87;21057;-81
2021/12/15 03:26:39;;;;;;;128.60;50.07;;;;;;;2.94;82.67;99977.20;2049996;87;21021;-82
2021/12/15 03:36:34;;;;;;;117.67;47.43;;;;;;;3.11;82.95;99982.07;2047653;87;21016;-80
2021/12/15 03:39:18;;;;;;;124.03;49.33;;;;;;;3.12;82.86;99984.74;2045011;87;20985;-81
2021/12/15 03:42:20;;;;;;;107.20;47.27;;;;;;;3.10;82.65;99985.45;2048012;87;21001;-81
2021/12/15 03:45:21;;;;;;;116.37;49.50;;;;;;;3.09;82.89;99989.72;2047414;87;21005;-82
2021/12/15 03:48:22;;;;;;;112.40;46.83;;;;;;;3.07;82.57;99990.03;2046950;87;21071;-80
2021/12/15 03:51:22;;;;;;;104.77;45.73;;;;;;;3.09;82.93;99990.12;2047571;87;20977;-80
2021/12/15 03:54:23;;;;;;;99.80;43.53;;;;;;;3.10;82.45;99989.32;2048075;87;21081;-81
2021/12/15 03:57:24;;;;;;;113.80;45.10;;;;;;;3.05;82.41;99990.34;2047881;87;20985;-80
2021/12/15 04:00:24;;;;;;;109.17;43.90;;;;;;;3.04;82.47;99987.67;2047034;87;20977;-81
2021/12/15 04:03:26;;;;;;;119.93;46.57;;;;;;;3.01;82.36;99987.48;2047554;87;21132;-82
2021/12/15 04:06:26;;;;;;;101.97;44.83;;;;;;;3.02;82.23;99979.84;2046912;87;21017;-82
2021/12/15 04:09:27;;;;;;;98.23;44.63;;;;;;;3.00;82.38;99979.26;2046607;87;20969;-80
2021/12/15 04:12:27;;;;;;;101.90;45.40;;;;;;;3.04;82.81;99981.22;2047396;87;21365;-80
2021/12/15 04:15:30;;;;;;;108.93;44.63;;;;;;;3.08;82.84;99984.07;2048058;87;20981;-80
2021/12/15 04:18:30;;;;;;;109.93;45.67;;;;;;;3.11;82.73;99980.78;2047727;87;20957;-81
2021/12/15 04:21:31;;;;;;;103.43;45.03;;;;;;;3.09;82.81;99977.22;2047273;87;21093;-81
2021/12/15 04:24:31;;;;;;;106.93;43.40;;;;;;;3.09;82.81;99988.83;2046847;87;20993;-80
2021/12/15 04:27:35;;;;;;;110.70;45.93;;;;;;;3.15;83.13;99992.66;2047177;87;21302;-80
2021/12/15 04:30:37;;;;;;;102.40;45.25;;;;;;;3.21;83.29;99992.13;2058138;84;21073;-79
2021/12/15 04:33:38;;;;;;;96.20;43.50;;;;;;;3.23;82.90;99989.64;2119628;84;20992;-81
2021/12/15 04:36:38;;;;;;;106.83;43.47;;;;;;;3.23;82.61;99993.11;2108605;84;21397;-80
2021/12/15 04:39:39;;;;;;;117.83;48.17;;;;;;;3.23;82.55;99989.64;2108850;84;20989;-80
2021/12/15 04:42:40;;;;;;;138.70;48.50;;;;;;;3.19;82.77;99999.78;2109276;84;21001;-80
2021/12/15 04:45:40;;;;;;;123.47;48.77;;;;;;;3.14;83.30;99995.16;2108856;84;20961;-80
2021/12/15 04:48:41;;;;;;;136.07;52.23;;;;;;;3.10;83.56;99995.38;2108844;84;20953;-80
2021/12/15 04:51:41;;;;;;;132.67;52.47;;;;;;;3.07;83.68;99990.03;2109802;84;20985;-81
2021/12/15 04:54:42;;;;;;;125.63;46.40;;;;;;;3.10;83.93;99979.00;2110484;84;21412;-81
2021/12/15 04:57:43;;;;;;;149.73;49.37;;;;;;;3.06;83.82;99983.48;2109926;84;21468;-82
2021/12/15 05:00:43;;;;;;;128.80;48.00;;;;;;;3.07;83.87;99982.29;2108970;84;21021;-80
2021/12/15 05:03:44;;;;;;;121.33;50.97;;;;;;;3.08;83.86;99989.23;2109003;84;21016;-80
2021/12/15 05:06:45;;;;;;;132.53;50.83;;;;;;;3.10;83.90;99994.08;2109173;84;21356;-80
2021/12/15 05:09:49;;;;;;;123.50;48.30;;;;;;;3.15;83.81;100000.41;2108956;84;20977;-79
2021/12/15 05:12:47;;;;;;;121.37;48.83;;;;;;;3.18;83.70;100006.14;2108229;84;21069;-79
2021/12/15 05:15:48;;;;;;;133.20;48.90;;;;;;;3.19;83.63;100006.64;2108877;84;20997;-80
2021/12/15 05:18:49;;;;;;;122.43;48.50;;;;;;;3.23;83.67;100000.86;2109541;84;21026;-80
2021/12/15 05:21:51;;;;;;;124.27;49.83;;;;;;;3.23;83.20;100004.73;2108963;84;21005;-81
2021/12/15 05:24:51;;;;;;;143.53;47.93;;;;;;;3.23;83.04;100003.84;2107751;84;21428;-80
2021/12/15 05:27:52;;;;;;;129.80;51.20;;;;;;;3.23;83.33;100008.59;2107815;84;21010;-80
2021/12/15 05:30:53;;;;;;;148.30;53.10;;;;;;;3.20;83.45;100005.44;2107202;84;21449;-81
2021/12/15 05:33:53;;;;;;;145.13;48.47;;;;;;;3.24;83.46;100005.62;2107065;84;21481;-80
2021/12/15 05:36:54;;;;;;;139.43;47.60;;;;;;;3.24;83.38;100010.78;2107559;84;20992;-80
2021/12/15 05:39:54;;;;;;;158.80;46.00;;;;;;;3.22;83.36;100005.92;2107785;84;20957;-79
2021/12/15 05:46:00;;;;;;;149.47;49.77;;;;;;;3.19;83.53;100019.14;2087447;84;21046;-82
2021/12/15 05:49:01;;;;;;;201.63;52.73;;;;;;;3.19;83.41;100022.12;2106808;84;20977;-82
2021/12/15 05:52:01;;;;;;;200.93;47.83;;;;;;;3.19;83.71;100024.30;2107455;84;20954;-82
2021/12/15 05:55:02;;;;;;;172.53;49.63;;;;;;;3.18;83.83;100026.39;2106522;84;21008;-80
2021/12/15 05:58:04;;;;;;;197.37;49.27;;;;;;;3.16;84.05;100025.80;2107056;84;21425;-81
2021/12/15 06:04:36;;;;;;;156.87;54.80;;;;;;;3.11;84.43;100027.22;2106356;84;21037;-81
2021/12/15 06:11:02;;;;;;;186.90;56.40;;;;;;;3.07;84.51;100023.97;2109521;84;20976;-81
2021/12/15 06:14:03;;;;;;;190.57;58.50;;;;;;;3.03;84.49;100036.19;2105904;84;21603;-78
2021/12/15 06:17:04;;;;;;;179.80;53.80;;;;;;;3.02;84.73;100044.73;2106372;84;20953;-82
2021/12/15 06:23:11;;;;;;;149.70;54.10;;;;;;;2.95;84.89;100051.20;2106935;83;21030;-84
2021/12/15 06:26:09;;;;;;;181.70;51.97;;;;;;;2.92;84.96;100059.15;2171074;81;20932;-81
2021/12/15 06:29:09;;;;;;;168.27;57.07;;;;;;;2.94;85.44;100062.31;2170355;81;20980;-84
2021/12/15 06:32:10;;;;;;;215.00;67.60;;;;;;;2.96;85.23;100067.17;2174745;81;21043;-84
2021/12/15 06:35:11;;;;;;;177.07;64.30;;;;;;;3.01;85.35;100074.79;2170927;82;21668;-85
2021/12/15 06:38:11;;;;;;;182.27;63.30;;;;;;;3.03;85.24;100087.78;2168425;81;20929;-83
2021/12/15 06:41:12;;;;;;;181.87;61.60;;;;;;;3.06;85.40;100085.39;2169548;82;20992;-84
2021/12/15 06:44:15;;;;;;;169.33;65.60;;;;;;;3.02;85.19;100081.73;2168771;81;21071;-82
2021/12/15 07:00:17;;;;;;;93.97;45.63;;;;;;;3.23;84.90;100104.07;2168396;82;20992;-86
2021/12/15 07:03:18;;;;;;;123.73;47.80;;;;;;;3.27;84.64;100103.86;2169640;81;20977;-88
2021/12/15 07:06:19;;;;;;;97.00;46.70;;;;;;;3.31;84.70;100109.30;2169266;81;20976;-85
2021/12/15 07:09:19;;;;;;;112.83;45.23;;;;;;;3.35;84.64;100119.41;2169653;81;20944;-85
2021/12/15 07:12:20;;;;;;;112.60;46.20;;;;;;;3.38;84.57;100119.59;2170030;81;20949;-84
2021/12/15 07:18:27;;;;;;;126.00;50.43;;;;;;;3.32;84.45;100134.30;2160491;82;21036;-84
2021/12/15 07:21:28;;;;;;;125.90;50.13;;;;;;;3.29;84.72;100135.41;2168589;81;20968;-84
2021/12/15 07:24:29;;;;;;;116.53;53.87;;;;;;;3.30;84.51;100137.19;2168630;82;21052;-85
2021/12/15 07:27:29;;;;;;;143.47;65.90;;;;;;;3.29;84.59;100139.28;2169024;81;21632;-84
2021/12/15 07:30:31;;;;;;;133.93;61.03;;;;;;;3.30;84.50;100140.17;2168559;81;20950;-85
2021/12/15 07:33:32;;;;;;;140.97;57.60;;;;;;;3.36;84.64;100147.89;2167619;81;21007;-85
2021/12/15 07:36:32;;;;;;;123.93;52.10;;;;;;;3.39;84.43;100148.47;2169776;81;20972;-86
2021/12/15 07:39:35;;;;;;;106.60;48.90;;;;;;;3.42;84.30;100152.53;2167808;81;21332;-85
2021/12/15 07:42:42;;;;;;;95.60;47.33;;;;;;;3.43;84.23;100147.86;2168034;82;21035;-86
2021/12/15 07:45:38;;;;;;;103.63;47.63;;;;;;;3.45;83.99;100144.97;2169203;81;21455;-84
2021/12/15 07:48:39;;;;;;;106.07;52.57;;;;;;;3.49;84.00;100149.55;2170156;81;20980;-85
2021/12/15 07:51:43;;;;;;;107.83;47.40;;;;;;;3.60;84.20;100151.49;2169715;81;20972;-85
2021/12/15 07:54:42;;;;;;;103.13;47.43;;;;;;;3.68;84.08;100149.86;2169603;81;21021;-83
2021/12/15 07:57:43;;;;;;;107.27;50.13;;;;;;;3.66;83.84;100150.17;2168350;81;20981;-84
2021/12/15 08:00:44;;;;;;;117.33;50.90;;;;;;;3.66;83.89;100138.95;2169033;81;21396;-84
2021/12/15 08:03:44;;;;;;;103.17;50.03;;;;;;;3.70;84.03;100140.91;2169923;81;21015;-85
2021/12/15 08:06:46;;;;;;;143.63;62.93;;;;;;;3.78;84.06;100147.02;2161213;82;20933;-85
2021/12/15 08:09:49;;;;;;;124.47;58.93;;;;;;;3.78;83.89;100149.60;2168876;81;21716;-85
2021/12/15 08:12:49;;;;;;;140.53;55.87;;;;;;;3.74;83.86;100148.04;2169409;82;21008;-86
2021/12/15 08:15:50;;;;;;;123.03;56.60;;;;;;;3.70;84.00;100144.78;2168852;81;21000;-84
2021/12/15 08:18:51;;;;;;;122.23;57.27;;;;;;;3.69;84.01;100146.47;2169338;81;20929;-86
2021/12/15 08:21:52;;;;;;;107.73;45.83;;;;;;;3.78;84.17;100150.89;2169479;81;21013;-85
2021/12/15 08:24:53;;;;;;;111.97;50.23;;;;;;;3.88;84.09;100154.02;2168995;81;22097;-83
2021/12/15 08:27:54;;;;;;;124.57;55.30;;;;;;;3.91;83.91;100159.37;2169075;81;20960;-84
2021/12/15 08:30:54;;;;;;;128.90;61.43;;;;;;;3.83;83.81;100155.93;2169653;81;21400;-86
2021/12/15 08:33:55;;;;;;;120.40;51.77;;;;;;;3.77;83.96;100152.98;2170865;81;21027;-84
2021/12/15 08:36:55;;;;;;;116.03;49.43;;;;;;;3.77;84.03;100161.13;2169509;81;20976;-83
2021/12/15 08:39:56;;;;;;;124.77;49.57;;;;;;;3.78;84.33;100162.52;2168403;82;21036;-83
2021/12/15 08:42:56;;;;;;;108.90;52.20;;;;;;;3.77;84.29;100172.36;2170131;81;21349;-84
2021/12/15 08:45:57;;;;;;;124.77;55.77;;;;;;;3.71;84.27;100168.12;2168941;82;20989;-85
2021/12/15 09:19:43;;;;;;;136.72;63.98;;;;;;;4.18;83.81;100172.60;2170135;82;20983;-83
2021/12/15 09:22:44;;;;;;;113.37;48.43;;;;;;;4.29;83.64;100157.31;2169959;82;21012;-83
2021/12/15 09:25:45;;;;;;;107.30;48.83;;;;;;;4.35;83.30;100163.27;2168919;81;20988;-84
2021/12/15 09:28:45;;;;;;;107.87;51.07;;;;;;;4.39;83.21;100160.95;2169972;81;20968;-86
2021/12/15 09:31:46;;;;;;;122.90;47.50;;;;;;;4.50;83.56;100162.84;2170268;81;21383;-85
2021/12/15 09:34:47;;;;;;;121.03;51.37;;;;;;;4.46;83.02;100166.95;2175327;82;20949;-82
2021/12/15 09:37:48;;;;;;;96.60;46.93;;;;;;;4.47;83.14;100157.10;2169186;81;21369;-81
2021/12/15 09:40:49;;;;;;;99.73;45.10;;;;;;;4.49;83.01;100154.60;2170445;81;20980;-83
2021/12/15 09:43:51;;;;;;;105.40;45.83;;;;;;;4.48;83.00;100157.99;2169730;81;20983;-86
2021/12/15 09:57:14;;;;;;;84.13;37.03;;;;;;;4.64;82.76;100141.64;2169771;82;21898;-82
2021/12/15 10:03:25;;;;;;;118.10;46.00;;;;;;;4.70;82.40;100153.63;2169400;82;21035;-83
2021/12/15 10:19:09;;;;;;;92.47;46.27;;;;;;;4.62;82.05;100131.21;2168921;82;20948;-80
2021/12/15 10:22:05;;;;;;;100.47;44.50;;;;;;;4.61;82.07;100130.72;2168323;81;21009;-83
2021/12/15 10:25:05;;;;;;;91.57;41.30;;;;;;;4.63;82.09;100134.28;2169273;81;21060;-81
2021/12/15 10:31:08;;;;;;;86.77;42.87;;;;;;;4.64;82.37;100145.52;2161061;82;20988;-85
2021/12/15 10:34:09;;;;;;;84.90;41.67;;;;;;;4.66;82.17;100136.15;2169603;81;21053;-81
2021/12/15 10:37:10;;;;;;;95.00;42.80;;;;;;;4.69;82.00;100138.50;2169386;82;20925;-80
2021/12/15 10:40:10;;;;;;;93.83;42.30;;;;;;;4.70;82.01;100149.73;2168832;81;20944;-81
2021/12/15 10:43:11;;;;;;;101.70;39.47;;;;;;;4.75;82.38;100156.06;2170732;81;20972;-81
2021/12/15 10:46:11;;;;;;;113.63;43.23;;;;;;;4.73;82.23;100149.91;2170063;81;21345;-80
2021/12/15 10:49:12;;;;;;;95.97;41.27;;;;;;;4.70;82.36;100148.45;2168404;81;20980;-81
2021/12/15 10:52:13;;;;;;;90.50;42.60;;;;;;;4.68;82.19;100141.01;2168236;82;20981;-80
2021/12/15 10:55:13;;;;;;;99.90;42.00;;;;;;;4.70;82.29;100137.70;2169831;82;20984;-81
2021/12/15 10:58:14;;;;;;;119.77;42.60;;;;;;;4.77;82.31;100141.52;2170091;81;20959;-85
2021/12/15 11:01:14;;;;;;;82.83;39.53;;;;;;;4.81;82.25;100140.88;2171666;82;20984;-80
2021/12/15 11:04:15;;;;;;;96.30;41.17;;;;;;;4.83;82.09;100134.49;2170090;81;21384;-81
2021/12/15 11:07:15;;;;;;;115.83;49.27;;;;;;;4.85;81.91;100134.17;2168811;81;21630;-81
2021/12/15 11:10:16;;;;;;;117.67;48.90;;;;;;;4.89;82.00;100130.95;2170291;82;20929;-80
2021/12/15 11:13:17;;;;;;;118.37;47.47;;;;;;;4.96;82.09;100138.23;2170214;81;20954;-83
2021/12/15 11:16:17;;;;;;;113.90;48.93;;;;;;;4.99;81.99;100130.23;2170738;82;20929;-82
2021/12/15 11:19:18;;;;;;;122.70;48.80;;;;;;;5.05;81.97;100122.80;2170204;81;20968;-84
2021/12/15 11:22:18;;;;;;;107.43;49.30;;;;;;;5.09;81.71;100126.45;2170753;81;21019;-82
2021/12/15 11:25:19;;;;;;;109.87;46.20;;;;;;;5.08;81.44;100122.97;2168413;81;21668;-82
2021/12/15 11:31:22;;;;;;;83.97;38.30;;;;;;;5.00;81.60;100115.60;2074235;85;21042;-81
2021/12/15 11:34:22;;;;;;;81.97;38.87;;;;;;;4.96;81.39;100106.78;2064457;86;21062;-82
2021/12/15 11:37:23;;;;;;;79.20;34.33;;;;;;;5.02;81.77;100099.75;2065715;86;21038;-84
2021/12/15 11:40:23;;;;;;;90.60;37.50;;;;;;;5.08;81.54;100094.91;2066822;86;21695;-82
2021/12/15 11:43:24;;;;;;;85.83;36.10;;;;;;;5.14;81.65;100084.87;2065712;86;21010;-83
2021/12/15 11:46:24;;;;;;;75.27;32.77;;;;;;;5.20;81.62;100077.84;2065869;86;20959;-83
2021/12/15 11:49:25;;;;;;;80.23;33.93;;;;;;;5.24;81.53;100080.70;2066241;86;20994;-85
2021/12/15 11:52:25;;;;;;;78.13;38.37;;;;;;;5.28;81.26;100085.23;2066415;86;20991;-84
2021/12/15 11:55:26;;;;;;;75.97;37.20;;;;;;;5.28;81.44;100081.75;2066772;86;21387;-83
2021/12/15 11:58:26;;;;;;;65.13;35.13;;;;;;;5.32;81.45;100079.41;2066222;86;21145;-83
2021/12/15 12:01:27;;;;;;;72.83;35.47;;;;;;;5.35;81.39;100078.67;2065707;86;20956;-84
2021/12/15 12:04:27;;;;;;;66.40;32.50;;;;;;;5.32;81.36;100077.22;2065641;86;21364;-83
2021/12/15 12:07:28;;;;;;;63.50;32.77;;;;;;;5.36;81.50;100070.98;2064582;86;20995;-79
2021/12/15 12:10:29;;;;;;;69.17;33.33;;;;;;;5.34;81.44;100069.12;2065279;86;21035;-82
2021/12/15 12:13:37;;;;;;;65.80;34.37;;;;;;;5.34;81.46;100063.95;2064727;86;21036;-81
2021/12/15 12:16:32;;;;;;;72.93;34.93;;;;;;;5.27;81.59;100061.45;2052690;87;21145;-83
2021/12/15 12:19:32;;;;;;;59.93;31.77;;;;;;;5.24;81.78;100060.39;2053858;87;21006;-84
2021/12/15 12:22:33;;;;;;;65.57;35.30;;;;;;;5.17;81.92;100063.03;2053684;87;21010;-83
2021/12/15 12:25:36;;;;;;;62.43;32.20;;;;;;;5.20;82.12;100060.64;2054203;87;21178;-85
2021/12/15 12:28:36;;;;;;;60.10;29.43;;;;;;;5.19;81.98;100067.00;2145363;82;20980;-83
2021/12/15 12:31:37;;;;;;;68.70;30.23;;;;;;;5.20;82.32;100061.94;2171144;81;20984;-83
2021/12/15 12:34:37;;;;;;;62.53;31.57;;;;;;;5.65;92.70;100058.22;2170581;81;20977;-81
2021/12/15 12:37:37;;;;;;;67.43;34.70;;;;;;;6.97;82.93;100048.65;2168136;81;20937;-80
2021/12/15 12:40:38;;;;;;;69.37;35.13;;;;;;;6.53;80.33;100053.06;2170105;81;20949;-81
2021/12/15 12:43:38;;;;;;;70.97;34.70;;;;;;;6.12;80.15;100061.45;2169834;81;21400;-80
2021/12/15 12:46:50;;;;;;;78.57;37.60;;;;;;;5.86;80.50;100070.48;2168553;81;20980;-81
2021/12/15 12:50:02;;;;;;;92.97;40.60;;;;;;;5.63;80.84;100079.28;2168529;81;20952;-82
2021/12/15 12:59:27;;;;;;;104.07;47.53;;;;;;;5.13;81.75;100081.39;2169338;82;21005;-87
2021/12/15 13:02:38;;;;;;;115.63;52.67;;;;;;;5.05;82.21;100085.28;2170279;81;21102;-86
2021/12/15 13:05:30;;;;;;;120.07;54.17;;;;;;;4.98;82.48;100085.76;2167908;81;20996;-87
2021/12/15 13:08:33;;;;;;;108.60;47.70;;;;;;;4.91;83.01;100084.05;2168633;81;21129;-82
2021/12/15 13:11:38;;;;;;;113.43;53.30;;;;;;;4.86;83.36;100082.92;2167712;81;20945;-81
2021/12/15 13:14:38;;;;;;;106.13;52.03;;;;;;;4.82;83.45;100084.45;2167612;81;21082;-83
2021/12/15 13:17:39;;;;;;;109.07;49.73;;;;;;;4.83;83.67;100089.22;2168034;81;20988;-82
2021/12/15 13:20:40;;;;;;;105.80;47.60;;;;;;;4.83;83.69;100094.39;2167383;81;20933;-82
2021/12/15 13:23:45;;;;;;;104.50;47.97;;;;;;;4.83;83.87;100090.52;2168403;81;20993;-81
2021/12/15 13:30:02;;;;;;;106.03;46.93;;;;;;;4.70;84.03;100091.14;2161737;82;21002;-83
2021/12/15 13:33:10;;;;;;;102.17;48.00;;;;;;;4.67;84.31;100104.31;2167685;81;21047;-81
2021/12/15 13:36:05;;;;;;;114.23;50.37;;;;;;;4.63;84.79;100096.78;2166187;81;20972;-84
2021/12/15 13:39:06;;;;;;;107.27;49.10;;;;;;;4.63;84.57;100098.48;2168337;81;21396;-85
2021/12/15 13:42:15;;;;;;;106.30;49.53;;;;;;;4.63;84.59;100107.53;2168846;81;20964;-85
2021/12/15 13:45:16;;;;;;;120.60;52.27;;;;;;;4.66;84.75;100112.88;2168201;81;20965;-85
2021/12/15 13:48:17;;;;;;;100.53;48.93;;;;;;;4.69;85.09;100106.58;2171024;81;20945;-88
2021/12/15 13:51:17;;;;;;;106.90;50.90;;;;;;;4.63;84.81;100111.01;2169028;82;20937;-85
2021/12/15 13:54:18;;;;;;;102.47;47.30;;;;;;;4.58;85.10;100112.85;2169008;81;21012;-84
2021/12/15 13:57:18;;;;;;;106.93;48.37;;;;;;;4.54;85.41;100112.19;2169825;81;21446;-82
2021/12/15 14:00:19;;;;;;;102.40;46.47;;;;;;;4.52;85.28;100112.52;2168630;81;20929;-82
2021/12/15 14:03:19;;;;;;;96.00;45.60;;;;;;;4.48;85.67;100121.39;2170680;82;21080;-83
2021/12/15 14:06:20;;;;;;;99.00;46.57;;;;;;;4.44;85.64;100113.38;2170050;81;21408;-83
2021/12/15 14:09:20;;;;;;;90.37;39.10;;;;;;;4.44;85.76;100120.73;2168152;81;21349;-83
2021/12/15 14:12:21;;;;;;;96.83;40.63;;;;;;;4.52;85.85;100122.45;2168330;81;21016;-85
2021/12/15 14:15:21;;;;;;;95.03;42.53;;;;;;;4.52;85.72;100123.74;2168553;81;20979;-84
2021/12/15 14:18:22;;;;;;;98.30;44.10;;;;;;;4.51;85.56;100127.54;2168758;81;21392;-83
2021/12/15 14:21:23;;;;;;;102.90;43.57;;;;;;;4.50;85.62;100117.59;2168054;82;21438;-80
2021/12/15 14:24:23;;;;;;;104.50;42.63;;;;;;;4.53;85.66;100123.34;2168158;81;21009;-81
2021/12/15 14:27:25;;;;;;;102.40;39.63;;;;;;;4.51;85.50;100126.25;2166738;81;21454;-80
2021/12/15 14:30:25;;;;;;;98.00;42.50;;;;;;;4.54;85.78;100133.77;2166691;81;20992;-83
2021/12/15 14:33:26;;;;;;;81.50;37.97;;;;;;;4.56;85.78;100130.87;2167384;81;20992;-83
2021/12/15 14:36:27;;;;;;;107.67;42.73;;;;;;;4.62;85.83;100131.61;2170366;81;20996;-84
2021/12/15 14:39:27;;;;;;;109.60;46.37;;;;;;;4.68;85.63;100136.72;2171350;81;20933;-85
2021/12/15 14:42:28;;;;;;;121.10;50.50;;;;;;;4.69;85.69;100138.50;2172366;82;20948;-81
2021/12/15 14:45:28;;;;;;;107.00;47.87;;;;;;;4.74;85.66;100137.47;2171454;81;21033;-82
2021/12/15 14:48:29;;;;;;;96.27;46.13;;;;;;;4.78;85.58;100139.02;2171046;81;21007;-82
2021/12/15 14:51:30;;;;;;;97.53;45.30;;;;;;;4.81;85.44;100139.58;2171087;82;20999;-82
2021/12/15 14:54:30;;;;;;;110.20;47.90;;;;;;;4.84;85.37;100137.16;2171347;81;20965;-82
2021/12/15 14:57:31;;;;;;;109.43;47.07;;;;;;;4.88;85.22;100133.05;2171201;81;21341;-82
2021/12/15 15:00:31;;;;;;;111.60;47.97;;;;;;;4.88;85.00;100138.22;2171720;81;21632;-83
2021/12/15 15:03:35;;;;;;;115.73;46.70;;;;;;;4.84;84.81;100135.87;2171520;81;21019;-80
2021/12/15 15:06:34;;;;;;;122.57;49.00;;;;;;;4.82;84.89;100138.78;2172044;81;20984;-81
2021/12/15 15:09:37;;;;;;;127.43;53.63;;;;;;;4.84;85.08;100141.45;2172328;81;21329;-80
2021/12/15 15:12:37;;;;;;;107.63;49.90;;;;;;;4.89;85.43;100140.89;2172439;82;21007;-82
2021/12/15 15:15:38;;;;;;;109.93;52.83;;;;;;;4.93;85.03;100140.66;2171233;82;21091;-81
2021/12/15 15:18:43;;;;;;;129.67;53.63;;;;;;;4.94;84.73;100140.74;2171741;81;21419;-83
2021/12/15 15:21:41;;;;;;;128.60;58.77;;;;;;;4.93;84.76;100152.30;2171478;81;20968;-80
2021/12/15 15:24:45;;;;;;;127.70;54.60;;;;;;;5.03;85.09;100152.89;2171661;81;21353;-82
2021/12/15 15:27:45;;;;;;;110.10;45.93;;;;;;;5.06;84.65;100152.16;2171208;81;21093;-82
2021/12/15 15:30:46;;;;;;;99.77;45.53;;;;;;;4.95;83.52;100148.98;2171430;81;20921;-80
2021/12/15 15:33:47;;;;;;;100.20;44.03;;;;;;;4.88;83.55;100155.93;2172165;81;20984;-84
2021/12/15 15:36:47;;;;;;;104.17;45.77;;;;;;;4.86;83.73;100152.37;2170360;81;21024;-83
2021/12/15 15:39:48;;;;;;;105.60;42.40;;;;;;;4.81;83.28;100162.87;2169734;81;20945;-83
2021/12/15 15:42:48;;;;;;;188.27;85.60;;;;;;;4.77;83.61;100157.03;2169878;81;21403;-82
2021/12/15 15:45:49;;;;;;;98.50;43.60;;;;;;;4.78;83.95;100161.41;2170806;81;20952;-83
2021/12/15 15:48:49;;;;;;;92.37;38.53;;;;;;;4.77;83.82;100154.45;2170505;81;20997;-83
2021/12/15 15:51:51;;;;;;;95.87;37.17;;;;;;;4.73;83.77;100155.09;2170295;81;20961;-82
2021/12/15 15:54:51;;;;;;;80.63;36.07;;;;;;;4.72;83.46;100147.73;2170127;81;20956;-83
2021/12/15 15:57:52;;;;;;;98.40;35.77;;;;;;;4.68;83.50;100153.94;2170041;81;21316;-83